Time;durP1;ratioP1;P1;durP2;ratioP2;P2;SDS_P1;SDS_P2;PMS_P1;PMS_P2;Temp;Humidity;BMP_temperature;BMP_pressure;BME280_temperature;BME280_humidity;BME280_pressure;Samples;Min_cycle;Max_cycle;Signal;HPM_P1;HPM_P2
2022/12/09 00:01:37;;;;;;;1999.90;999.90;;;-1.10;99.90;;;;;;5032830;28;20468;-68
2022/12/09 00:04:05;;;;;;;1999.90;999.90;;;-1.20;99.90;;;;;;5032681;28;20448;-68
2022/12/09 00:06:33;;;;;;;1999.90;999.90;;;-1.20;99.90;;;;;;5033302;28;20835;-68
2022/12/09 00:08:59;;;;;;;1999.90;999.90;;;-1.20;99.90;;;;;;5032687;28;20864;-68
2022/12/09 00:11:26;;;;;;;1999.90;999.90;;;-1.30;99.90;;;;;;5033233;28;20492;-68
2022/12/09 00:13:55;;;;;;;1999.90;999.90;;;-1.40;99.90;;;;;;5032597;28;20466;-68
2022/12/09 00:16:23;;;;;;;1999.90;999.90;;;-1.40;99.90;;;;;;5032919;28;20467;-68
2022/12/09 00:18:50;;;;;;;1999.90;999.90;;;-1.30;99.90;;;;;;5032558;28;20448;-68
2022/12/09 00:21:21;;;;;;;1999.90;999.90;;;-1.30;99.90;;;;;;5032856;28;20465;-68
2022/12/09 00:23:50;;;;;;;1999.90;999.90;;;-1.30;99.90;;;;;;5032596;28;20965;-68
2022/12/09 00:26:18;;;;;;;1999.90;999.90;;;-1.30;99.90;;;;;;5032507;28;20453;-68
2022/12/09 00:28:45;;;;;;;1999.90;999.90;;;-1.30;99.90;;;;;;5032149;28;20855;-68
2022/12/09 00:31:14;;;;;;;1999.90;999.90;;;-1.40;99.90;;;;;;5031998;28;20485;-68
2022/12/09 00:33:41;;;;;;;1999.90;999.90;;;-1.50;99.90;;;;;;5032357;28;20459;-68
2022/12/09 00:36:10;;;;;;;1999.90;999.90;;;-1.60;99.90;;;;;;5032020;28;20457;-68
2022/12/09 00:38:39;;;;;;;1999.90;999.90;;;-1.60;99.90;;;;;;5031871;28;20453;-68
2022/12/09 00:41:06;;;;;;;1999.90;999.90;;;-1.60;99.90;;;;;;5032066;28;20457;-68
2022/12/09 00:43:33;;;;;;;1999.90;999.90;;;-1.70;99.90;;;;;;5043851;28;20455;-69
2022/12/09 00:46:00;;;;;;;1999.90;999.90;;;-1.50;99.90;;;;;;5052211;28;20978;-67
2022/12/09 00:48:27;;;;;;;1999.90;999.90;;;-1.50;99.90;;;;;;5051910;28;20444;-67
2022/12/09 00:50:54;;;;;;;1999.90;999.90;;;-1.50;99.90;;;;;;5051906;28;20562;-67
2022/12/09 00:53:21;;;;;;;1999.90;999.90;;;-1.60;99.90;;;;;;5052046;28;20447;-67
2022/12/09 00:55:49;;;;;;;1999.90;999.90;;;-1.60;99.90;;;;;;5052112;28;20510;-67
2022/12/09 00:58:16;;;;;;;1999.90;999.90;;;-1.50;99.90;;;;;;5051328;28;20463;-67
2022/12/09 01:00:42;;;;;;;1999.90;999.90;;;-1.60;99.90;;;;;;5050996;28;20451;-67
2022/12/09 01:03:13;;;;;;;1999.90;999.90;;;-1.70;99.90;;;;;;5051465;28;20451;-68
2022/12/09 01:05:39;;;;;;;1999.90;999.90;;;-1.70;99.90;;;;;;5051664;28;20452;-67
2022/12/09 01:08:06;;;;;;;1999.90;999.90;;;-1.70;99.90;;;;;;5051705;28;20440;-67
2022/12/09 01:10:33;;;;;;;1999.90;999.90;;;-1.60;99.90;;;;;;5051092;28;20479;-67
2022/12/09 01:13:01;;;;;;;1999.90;999.90;;;-1.70;99.90;;;;;;5051327;28;20487;-67
2022/12/09 01:15:28;;;;;;;1999.90;999.90;;;-1.70;99.90;;;;;;5051531;28;20451;-67
2022/12/09 01:17:55;;;;;;;1999.90;999.90;;;-1.70;99.90;;;;;;5051259;28;20448;-67
2022/12/09 01:20:22;;;;;;;1999.90;999.90;;;-1.80;99.90;;;;;;5051170;28;20442;-67
2022/12/09 01:22:48;;;;;;;1999.90;999.90;;;-1.70;99.90;;;;;;5051253;28;20558;-67
2022/12/09 01:25:15;;;;;;;1999.90;999.90;;;-1.90;99.90;;;;;;5051084;28;20451;-68
2022/12/09 01:27:42;;;;;;;1999.90;999.90;;;-1.90;99.90;;;;;;5052524;28;20448;-68
2022/12/09 01:30:13;;;;;;;1999.90;999.90;;;-1.90;99.90;;;;;;5052413;28;20914;-68
2022/12/09 01:32:40;;;;;;;1999.90;999.90;;;-1.80;99.90;;;;;;5052231;28;20460;-68
2022/12/09 01:35:07;;;;;;;1999.90;999.90;;;-1.80;99.90;;;;;;5051262;28;20462;-68
2022/12/09 01:37:34;;;;;;;1999.90;999.90;;;-1.80;99.90;;;;;;5051223;28;20444;-68
2022/12/09 01:40:01;;;;;;;1999.90;999.90;;;-1.70;99.90;;;;;;5050433;28;20954;-67
2022/12/09 01:42:28;;;;;;;1999.90;999.90;;;-1.70;99.90;;;;;;5051016;28;20474;-67
2022/12/09 01:45:37;;;;;;;1999.90;999.90;;;-1.70;99.90;;;;;;5050983;28;20450;-67
2022/12/09 01:48:07;;;;;;;1999.90;999.90;;;-1.80;99.90;;;;;;5050730;28;21105;-68
2022/12/09 01:50:35;;;;;;;1999.90;999.90;;;-1.90;99.90;;;;;;5050547;28;20476;-68
2022/12/09 01:53:02;;;;;;;1999.90;999.90;;;-2.00;99.90;;;;;;5050768;28;20472;-68
2022/12/09 01:55:29;;;;;;;1999.90;999.90;;;-2.00;99.90;;;;;;5050534;28;20448;-68
2022/12/09 01:57:56;;;;;;;1999.90;999.90;;;-2.00;99.90;;;;;;5050752;28;20455;-68
2022/12/09 02:00:23;;;;;;;1999.90;999.90;;;-2.00;99.90;;;;;;5050212;28;20451;-68
2022/12/09 02:02:54;;;;;;;1999.90;999.90;;;-1.90;99.90;;;;;;5050754;28;20543;-68
2022/12/09 02:05:23;;;;;;;1999.90;999.90;;;-1.90;99.90;;;;;;5050531;28;20440;-68
2022/12/09 02:07:50;;;;;;;1999.90;999.90;;;-1.90;99.90;;;;;;5050635;28;20448;-68
2022/12/09 02:10:18;;;;;;;1999.90;999.90;;;-1.80;99.90;;;;;;5050260;28;20447;-68
2022/12/09 02:12:52;;;;;;;1999.90;999.90;;;-1.90;99.90;;;;;;5050350;28;20468;-68
2022/12/09 02:15:24;;;;;;;1999.90;999.90;;;-1.80;99.90;;;;;;5050503;28;20960;-68
2022/12/09 02:17:56;;;;;;;1999.90;999.90;;;-2.00;99.90;;;;;;5050632;28;20440;-68
2022/12/09 02:20:28;;;;;;;1999.90;999.90;;;-2.10;99.90;;;;;;5050457;28;20440;-69
2022/12/09 02:23:07;;;;;;;1999.90;999.90;;;-2.10;99.90;;;;;;5050614;28;20471;-68
2022/12/09 02:25:40;;;;;;;1999.90;999.90;;;-2.10;99.90;;;;;;5050411;28;20446;-68
2022/12/09 02:28:44;;;;;;;1999.90;999.90;;;-2.00;99.90;;;;;;5050125;28;20452;-68
2022/12/09 02:31:23;;;;;;;1999.90;999.90;;;-2.00;99.90;;;;;;5049775;28;20872;-68
2022/12/09 02:34:05;;;;;;;1999.90;999.90;;;-2.10;99.90;;;;;;5049804;28;20913;-68
2022/12/09 02:36:38;;;;;;;1999.90;999.90;;;-2.00;99.90;;;;;;5050253;28;20451;-68
2022/12/09 02:39:07;;;;;;;1999.90;999.90;;;-1.90;99.90;;;;;;5049504;28;20444;-68
2022/12/09 02:41:36;;;;;;;1999.90;999.90;;;-1.90;99.90;;;;;;5049845;28;20463;-68
2022/12/09 02:44:07;;;;;;;1999.90;999.90;;;-1.90;99.90;;;;;;5049714;28;20933;-68
2022/12/09 02:46:35;;;;;;;1999.90;999.90;;;-2.00;99.90;;;;;;5049872;28;20440;-68
2022/12/09 02:49:04;;;;;;;1999.90;999.90;;;-2.00;99.90;;;;;;5049603;28;20440;-68
2022/12/09 02:51:35;;;;;;;1999.90;999.90;;;-2.00;99.90;;;;;;5049845;28;20764;-68
2022/12/09 02:54:08;;;;;;;1999.90;999.90;;;-2.10;99.90;;;;;;5049835;28;20452;-68
2022/12/09 02:56:35;;;;;;;1999.90;999.90;;;-2.20;99.90;;;;;;5050042;28;20444;-68
2022/12/09 02:59:02;;;;;;;1999.90;999.90;;;-2.20;99.90;;;;;;5049728;28;21067;-68
2022/12/09 03:01:39;;;;;;;1999.90;999.90;;;-2.20;99.90;;;;;;5049727;28;20483;-68
2022/12/09 03:04:10;;;;;;;1999.90;999.90;;;-2.20;99.90;;;;;;5050015;28;21001;-68
2022/12/09 03:06:43;;;;;;;1999.90;999.90;;;-2.20;99.90;;;;;;5049792;28;20444;-68
2022/12/09 03:09:13;;;;;;;1999.90;999.90;;;-2.20;99.90;;;;;;5049370;28;20444;-68
2022/12/09 03:11:41;;;;;;;1999.90;999.90;;;-2.20;99.90;;;;;;5049201;28;20490;-68
2022/12/09 03:14:12;;;;;;;1999.90;999.90;;;-2.30;99.90;;;;;;5049735;28;20458;-68
2022/12/09 03:16:44;;;;;;;1999.90;999.90;;;-2.40;99.90;;;;;;5049296;28;20480;-67
2022/12/09 03:19:18;;;;;;;1999.90;999.90;;;-2.40;99.90;;;;;;5049362;28;20501;-67
2022/12/09 03:21:47;;;;;;;1999.90;999.90;;;-2.40;99.90;;;;;;5049243;28;20456;-67
2022/12/09 03:24:20;;;;;;;1999.90;999.90;;;-2.30;99.90;;;;;;5050159;28;20978;-67
2022/12/09 03:26:48;;;;;;;1999.90;999.90;;;-2.30;99.90;;;;;;5053623;28;20448;-67
2022/12/09 03:29:18;;;;;;;1999.90;999.90;;;-2.30;99.90;;;;;;5053273;28;20440;-67
2022/12/09 03:31:47;;;;;;;1999.90;999.90;;;-2.30;99.90;;;;;;5053264;28;20479;-68
2022/12/09 03:34:17;;;;;;;1999.90;999.90;;;-2.40;99.90;;;;;;5053235;28;20440;-68
2022/12/09 03:36:47;;;;;;;1999.90;999.90;;;-2.40;99.90;;;;;;5053021;28;20446;-68
2022/12/09 03:39:16;;;;;;;1999.90;999.90;;;-2.40;99.90;;;;;;5053065;28;20444;-68
2022/12/09 03:41:46;;;;;;;1999.90;999.90;;;-2.40;99.90;;;;;;5053312;28;20470;-67
2022/12/09 03:44:18;;;;;;;1999.90;999.90;;;-2.50;99.90;;;;;;5053036;28;20451;-67
2022/12/09 03:46:46;;;;;;;1999.90;999.90;;;-2.50;99.90;;;;;;5053191;28;20448;-67
2022/12/09 03:49:13;;;;;;;1999.90;999.90;;;-2.50;99.90;;;;;;5053119;28;20455;-68
2022/12/09 03:51:45;;;;;;;1999.90;999.90;;;-2.50;99.90;;;;;;5053838;28;20495;-68
2022/12/09 03:54:16;;;;;;;1999.90;999.90;;;-2.50;99.90;;;;;;5053566;28;20448;-68
2022/12/09 03:56:47;;;;;;;1999.90;999.90;;;-2.50;99.90;;;;;;5053655;28;20435;-67
2022/12/09 03:59:15;;;;;;;1999.90;999.90;;;-2.50;99.90;;;;;;5052283;28;20450;-68
2022/12/09 04:01:44;;;;;;;1999.90;999.90;;;-2.50;99.90;;;;;;5052675;28;20456;-67
2022/12/09 04:04:12;;;;;;;1999.90;999.90;;;-2.40;99.90;;;;;;5052893;28;20534;-67
2022/12/09 04:06:40;;;;;;;1999.90;999.90;;;-2.30;99.90;;;;;;5052767;28;20454;-67
2022/12/09 04:09:07;;;;;;;1999.90;999.90;;;-2.30;99.90;;;;;;5052295;28;20455;-67
2022/12/09 04:11:34;;;;;;;1999.90;999.90;;;-2.40;99.90;;;;;;5052551;28;20488;-67
2022/12/09 04:14:01;;;;;;;1999.90;999.90;;;-2.40;99.90;;;;;;5052549;28;20825;-68
2022/12/09 04:16:28;;;;;;;1999.90;999.90;;;-2.30;99.90;;;;;;5052528;28;20960;-68
2022/12/09 04:18:55;;;;;;;1999.90;999.90;;;-2.30;99.90;;;;;;5052451;28;20443;-67
2022/12/09 04:21:22;;;;;;;1999.90;999.90;;;-2.30;99.90;;;;;;5052325;28;20463;-67
2022/12/09 04:23:50;;;;;;;1999.90;999.90;;;-2.30;99.90;;;;;;5052327;28;20444;-67
2022/12/09 04:26:20;;;;;;;1999.90;999.90;;;-2.40;99.90;;;;;;5052471;28;20981;-68
2022/12/09 04:28:48;;;;;;;1999.90;999.90;;;-2.30;99.90;;;;;;5053781;28;20488;-68
2022/12/09 04:31:17;;;;;;;1999.90;999.90;;;-2.40;99.90;;;;;;5053850;28;20483;-67
2022/12/09 04:33:44;;;;;;;1999.90;999.90;;;-2.40;99.90;;;;;;5053309;28;20950;-68
2022/12/09 04:36:13;;;;;;;1999.90;999.90;;;-2.40;99.90;;;;;;5050787;28;20459;-68
2022/12/09 04:38:41;;;;;;;1999.90;999.90;;;-2.40;99.90;;;;;;5051916;28;20965;-67
2022/12/09 04:41:09;;;;;;;1999.90;999.90;;;-2.40;99.90;;;;;;5051770;28;20475;-67
2022/12/09 04:43:36;;;;;;;1999.90;999.90;;;-2.40;99.90;;;;;;5052016;28;20440;-67
2022/12/09 04:46:04;;;;;;;1999.90;999.90;;;-2.40;99.90;;;;;;5052201;28;20539;-67
2022/12/09 04:48:32;;;;;;;1999.90;999.90;;;-2.20;99.90;;;;;;5051546;28;20930;-67
2022/12/09 04:50:59;;;;;;;1999.90;999.90;;;-2.20;99.90;;;;;;5051659;28;20450;-68
2022/12/09 04:53:26;;;;;;;1999.90;999.90;;;-2.30;99.90;;;;;;5051567;28;20942;-67
2022/12/09 04:55:59;;;;;;;1999.90;999.90;;;-2.40;99.90;;;;;;5051626;28;20448;-68
2022/12/09 04:58:27;;;;;;;1999.90;999.90;;;-2.50;99.90;;;;;;5051503;28;20494;-68
2022/12/09 05:00:54;;;;;;;1999.90;999.90;;;-2.40;99.90;;;;;;5052002;28;20444;-68
2022/12/09 05:03:21;;;;;;;1999.90;999.90;;;-2.50;99.90;;;;;;5051555;28;20444;-68
2022/12/09 05:05:48;;;;;;;1999.90;999.90;;;-2.40;99.90;;;;;;5051679;28;20459;-68
2022/12/09 05:08:15;;;;;;;1999.90;999.90;;;-2.20;99.90;;;;;;5050959;28;20539;-68
2022/12/09 05:10:46;;;;;;;1999.90;999.90;;;-2.30;99.90;;;;;;5051727;28;20451;-68
2022/12/09 05:13:13;;;;;;;1999.90;999.90;;;-2.30;99.90;;;;;;5051458;28;20530;-68
2022/12/09 05:15:41;;;;;;;1999.90;999.90;;;-2.30;99.90;;;;;;5051401;28;20444;-68
2022/12/09 05:18:08;;;;;;;1999.90;999.90;;;-2.20;99.90;;;;;;5051327;28;20824;-68
2022/12/09 05:20:34;;;;;;;1999.90;999.90;;;-2.10;99.90;;;;;;5050865;28;20450;-68
2022/12/09 05:23:01;;;;;;;1999.90;999.90;;;-2.00;99.90;;;;;;5051163;28;20456;-67
2022/12/09 05:25:28;;;;;;;1999.90;999.90;;;-2.10;99.90;;;;;;5051099;28;20964;-67
2022/12/09 05:27:55;;;;;;;1999.90;999.90;;;-2.20;99.90;;;;;;5051285;28;20950;-69
2022/12/09 05:30:21;;;;;;;1999.90;999.90;;;-2.20;99.90;;;;;;5051133;28;20444;-69
2022/12/09 05:32:49;;;;;;;1999.90;999.90;;;-2.20;99.90;;;;;;5051284;28;20487;-69
2022/12/09 05:35:16;;;;;;;1999.90;999.90;;;-2.20;99.90;;;;;;5050859;28;21198;-70
2022/12/09 05:37:43;;;;;;;1999.90;999.90;;;-2.20;99.90;;;;;;5051532;28;20448;-68
2022/12/09 05:40:10;;;;;;;1999.90;999.90;;;-2.20;99.90;;;;;;5050676;28;20953;-69
2022/12/09 05:42:37;;;;;;;1999.90;999.90;;;-2.20;99.90;;;;;;5051099;28;20462;-66
2022/12/09 05:45:04;;;;;;;1999.90;999.90;;;-2.10;99.90;;;;;;5051068;28;20818;-67
2022/12/09 05:47:31;;;;;;;1999.90;999.90;;;-2.10;99.90;;;;;;5050517;28;20466;-68
2022/12/09 05:49:59;;;;;;;1999.90;999.90;;;-2.10;99.90;;;;;;5050358;28;20999;-67
2022/12/09 05:52:26;;;;;;;1999.90;999.90;;;-2.10;99.90;;;;;;5050636;28;20490;-68
2022/12/09 05:54:53;;;;;;;1999.90;999.90;;;-2.10;99.90;;;;;;5050739;28;20453;-68
2022/12/09 05:57:19;;;;;;;1999.90;999.90;;;-2.10;99.90;;;;;;5050368;28;20444;-69
2022/12/09 05:59:46;;;;;;;1999.90;999.90;;;-2.20;99.90;;;;;;5050327;28;20448;-69
2022/12/09 06:02:13;;;;;;;1999.90;999.90;;;-2.20;99.90;;;;;;5048810;28;20472;-69
2022/12/09 06:04:40;;;;;;;1999.90;999.90;;;-2.20;99.90;;;;;;5046712;28;20448;-68
2022/12/09 06:07:08;;;;;;;1999.90;999.90;;;-2.20;99.90;;;;;;5046238;28;20444;-68
2022/12/09 06:09:34;;;;;;;1999.90;999.90;;;-2.20;99.90;;;;;;5046948;28;20448;-69
2022/12/09 06:12:02;;;;;;;1999.90;999.90;;;-2.10;99.90;;;;;;5045664;28;20487;-69
2022/12/09 06:14:29;;;;;;;1999.90;999.90;;;-2.00;99.90;;;;;;5046683;28;20452;-69
2022/12/09 06:16:56;;;;;;;1999.90;999.90;;;-2.10;99.90;;;;;;5045977;28;20447;-68
2022/12/09 06:19:22;;;;;;;1999.90;999.90;;;-1.90;99.90;;;;;;5043539;28;20454;-69
2022/12/09 06:21:49;;;;;;;1999.90;999.90;;;-1.90;99.90;;;;;;5047873;28;21023;-69
2022/12/09 06:24:17;;;;;;;1999.90;999.90;;;-1.90;99.90;;;;;;5049979;28;20844;-69
2022/12/09 06:26:44;;;;;;;1999.90;999.90;;;-2.00;99.90;;;;;;5050089;28;20447;-69
2022/12/09 06:29:11;;;;;;;1999.90;999.90;;;-2.10;99.90;;;;;;5048790;28;20452;-69
2022/12/09 06:31:38;;;;;;;1999.90;999.90;;;-2.10;99.90;;;;;;5049854;28;20488;-70
2022/12/09 06:34:04;;;;;;;1999.90;999.90;;;-2.10;99.90;;;;;;5049996;28;20444;-68
2022/12/09 06:36:31;;;;;;;1999.90;999.90;;;-2.00;99.90;;;;;;5050364;28;20455;-66
2022/12/09 06:39:01;;;;;;;1999.90;999.90;;;-2.10;99.90;;;;;;5049660;28;20998;-69
2022/12/09 06:41:29;;;;;;;1999.90;999.90;;;-2.20;99.90;;;;;;5049850;28;20860;-69
2022/12/09 06:43:57;;;;;;;1999.90;999.90;;;-2.10;99.90;;;;;;5047791;28;20475;-69
2022/12/09 06:46:24;;;;;;;1999.90;999.90;;;-2.00;99.90;;;;;;5049326;28;20451;-69
2022/12/09 06:48:52;;;;;;;1999.90;999.90;;;-2.00;99.90;;;;;;5047764;28;20448;-69
2022/12/09 06:51:19;;;;;;;1999.90;999.90;;;-2.00;99.90;;;;;;5049543;28;20460;-69
2022/12/09 06:53:46;;;;;;;1999.90;999.90;;;-1.80;99.90;;;;;;5049694;28;20444;-69
2022/12/09 06:56:14;;;;;;;1999.90;999.90;;;-1.80;99.90;;;;;;5048969;28;20444;-69
2022/12/09 06:58:44;;;;;;;1999.90;999.90;;;-1.90;99.90;;;;;;5048993;28;20460;-69
2022/12/09 07:01:13;;;;;;;1999.90;999.90;;;-1.90;99.90;;;;;;5049575;28;20460;-69
2022/12/09 07:03:41;;;;;;;1999.90;999.90;;;-1.90;99.90;;;;;;5049798;28;20440;-69
2022/12/09 07:06:14;;;;;;;1999.90;999.90;;;-1.90;99.90;;;;;;5049628;28;20807;-69
2022/12/09 07:08:41;;;;;;;1999.90;999.90;;;-1.80;99.90;;;;;;5049353;28;20829;-69
2022/12/09 07:11:08;;;;;;;1999.90;999.90;;;-1.80;99.90;;;;;;5049274;28;20853;-69
2022/12/09 07:13:35;;;;;;;1999.90;999.90;;;-1.80;99.90;;;;;;5049932;28;20854;-69
2022/12/09 07:16:03;;;;;;;1999.90;999.90;;;-1.70;99.90;;;;;;5049434;28;20953;-70
2022/12/09 07:18:30;;;;;;;1999.90;999.90;;;-1.70;99.90;;;;;;5049173;28;21039;-69
2022/12/09 07:20:56;;;;;;;1999.90;999.90;;;-1.70;99.90;;;;;;5049348;28;20447;-69
2022/12/09 07:23:23;;;;;;;1999.90;999.90;;;-1.70;99.90;;;;;;5049876;28;20455;-69
2022/12/09 07:25:56;;;;;;;1999.90;999.90;;;-1.70;99.90;;;;;;5049535;28;20455;-69
2022/12/09 07:28:22;;;;;;;1999.90;999.90;;;-1.60;99.90;;;;;;5049744;28;20450;-69
2022/12/09 07:30:49;;;;;;;1999.90;999.90;;;-1.50;99.90;;;;;;5049317;28;20454;-69
2022/12/09 07:33:17;;;;;;;1999.90;999.90;;;-1.50;99.90;;;;;;5049324;28;20999;-69
2022/12/09 07:35:44;;;;;;;1999.90;999.90;;;-1.40;99.90;;;;;;5049192;28;20452;-69
2022/12/09 07:38:11;;;;;;;1999.90;999.90;;;-1.30;99.90;;;;;;5049119;28;20444;-70
2022/12/09 07:40:39;;;;;;;1999.90;999.90;;;-1.30;99.90;;;;;;5049225;28;20942;-70
2022/12/09 07:43:06;;;;;;;1999.90;999.90;;;-1.20;99.90;;;;;;5049181;28;21008;-69
2022/12/09 07:45:34;;;;;;;1999.90;999.90;;;-1.10;99.90;;;;;;5049626;28;20452;-69
2022/12/09 07:48:01;;;;;;;1999.90;999.90;;;-0.90;99.90;;;;;;5049263;28;20954;-69
2022/12/09 07:50:29;;;;;;;1999.90;999.90;;;-0.70;99.90;;;;;;5049024;28;20444;-69
2022/12/09 07:52:56;;;;;;;1999.90;999.90;;;-0.50;99.90;;;;;;5048947;28;20484;-69
2022/12/09 07:55:24;;;;;;;1999.90;999.90;;;-0.30;99.90;;;;;;5049083;28;21037;-69
2022/12/09 07:57:51;;;;;;;1999.90;999.90;;;-0.20;99.90;;;;;;5049188;28;20444;-69
2022/12/09 08:00:19;;;;;;;1999.90;999.90;;;0.00;99.90;;;;;;5048889;28;20453;-69
2022/12/09 08:02:49;;;;;;;1999.90;999.90;;;0.10;99.90;;;;;;5049155;28;20456;-69
2022/12/09 08:05:24;;;;;;;1999.90;999.90;;;0.30;99.90;;;;;;5049173;28;20444;-69
2022/12/09 08:07:52;;;;;;;1999.90;999.90;;;0.20;99.90;;;;;;5049596;28;20444;-69
2022/12/09 08:10:19;;;;;;;1999.90;999.90;;;0.30;99.90;;;;;;5049569;28;20820;-69
2022/12/09 08:12:48;;;;;;;1999.90;999.90;;;0.30;99.90;;;;;;5052544;28;20518;-69
2022/12/09 08:15:15;;;;;;;1999.90;999.90;;;0.30;99.90;;;;;;5052643;28;20447;-69
2022/12/09 08:17:42;;;;;;;1999.90;999.90;;;0.40;99.90;;;;;;5052298;28;20945;-69
2022/12/09 08:20:10;;;;;;;1999.90;999.90;;;0.50;99.90;;;;;;5052560;28;20452;-69
2022/12/09 08:22:36;;;;;;;1999.90;999.90;;;0.60;99.90;;;;;;5052662;28;20468;-69
2022/12/09 08:25:15;;;;;;;1999.90;999.90;;;0.60;99.90;;;;;;5052412;28;20448;-69
2022/12/09 08:27:41;;;;;;;1999.90;999.90;;;0.70;99.90;;;;;;5052562;28;20447;-69
2022/12/09 08:30:13;;;;;;;1999.90;999.90;;;0.80;99.90;;;;;;5052129;28;20551;-69
2022/12/09 08:32:42;;;;;;;1999.90;999.90;;;0.90;99.90;;;;;;5052289;28;21001;-69
2022/12/09 08:35:13;;;;;;;1999.90;999.90;;;1.00;99.90;;;;;;5052264;28;20862;-69
2022/12/09 08:37:40;;;;;;;1999.90;999.90;;;1.00;99.90;;;;;;5052268;28;20433;-69
2022/12/09 08:40:11;;;;;;;1999.90;999.90;;;1.10;99.90;;;;;;5051873;28;20444;-69
2022/12/09 08:42:38;;;;;;;1999.90;999.90;;;1.30;99.90;;;;;;5052530;28;20468;-69
2022/12/09 08:45:13;;;;;;;1999.90;999.90;;;1.30;99.90;;;;;;5052320;28;20448;-69
2022/12/09 08:47:41;;;;;;;1999.90;999.90;;;1.30;99.90;;;;;;5052000;28;20972;-69
2022/12/09 08:50:08;;;;;;;1999.90;999.90;;;1.40;99.90;;;;;;5051862;28;20444;-69
2022/12/09 08:52:35;;;;;;;1999.90;999.90;;;1.30;99.90;;;;;;5052056;28;20479;-69
2022/12/09 08:55:04;;;;;;;1999.90;999.90;;;1.50;99.90;;;;;;5051874;28;20451;-69
2022/12/09 08:57:32;;;;;;;1999.90;999.90;;;1.50;99.90;;;;;;5052323;28;20448;-69
2022/12/09 08:59:59;;;;;;;1999.90;999.90;;;1.60;99.90;;;;;;5051853;28;20444;-69
2022/12/09 09:02:26;;;;;;;1999.90;999.90;;;1.70;99.90;;;;;;5052234;28;20464;-70
2022/12/09 09:04:52;;;;;;;1999.90;999.90;;;1.90;99.90;;;;;;5051921;28;20456;-69
2022/12/09 09:07:19;;;;;;;1999.90;999.90;;;2.00;99.90;;;;;;5051865;28;20443;-70
2022/12/09 09:09:48;;;;;;;1999.90;999.90;;;2.00;99.90;;;;;;5051182;28;20945;-69
2022/12/09 09:12:16;;;;;;;1999.90;999.90;;;1.90;99.90;;;;;;5051423;28;20471;-69
2022/12/09 09:14:44;;;;;;;1999.90;999.90;;;1.80;99.90;;;;;;5051947;28;20477;-69
2022/12/09 09:17:11;;;;;;;1999.90;999.90;;;1.60;99.90;;;;;;5052831;28;20523;-69
2022/12/09 09:19:37;;;;;;;1999.90;999.90;;;1.40;99.90;;;;;;5052046;28;20574;-70
2022/12/09 09:22:04;;;;;;;1999.90;999.90;;;1.30;99.90;;;;;;5051050;28;20468;-71
2022/12/09 09:24:31;;;;;;;1999.90;999.90;;;1.30;99.90;;;;;;5053166;28;20443;-69
2022/12/09 09:26:58;;;;;;;1999.90;999.90;;;1.40;99.90;;;;;;5051442;28;20513;-69
2022/12/09 09:29:25;;;;;;;1999.90;999.90;;;1.60;99.90;;;;;;5051600;28;20509;-70
2022/12/09 09:31:53;;;;;;;1999.90;999.90;;;1.70;99.90;;;;;;5052162;28;20464;-70
2022/12/09 09:34:21;;;;;;;1999.90;999.90;;;1.70;99.90;;;;;;5051332;28;20865;-70
2022/12/09 09:36:48;;;;;;;1999.90;999.90;;;1.80;99.90;;;;;;5051410;28;20490;-70
2022/12/09 09:39:15;;;;;;;1999.90;999.90;;;1.80;99.90;;;;;;5051033;28;20546;-70
2022/12/09 09:41:47;;;;;;;1999.90;999.90;;;1.90;99.90;;;;;;5051293;28;20464;-69
2022/12/09 09:44:22;;;;;;;1999.90;999.90;;;2.00;99.90;;;;;;5051275;28;20451;-69
2022/12/09 09:46:50;;;;;;;1999.90;999.90;;;2.10;99.90;;;;;;5050967;28;20455;-69
2022/12/09 09:49:27;;;;;;;1999.90;999.90;;;2.20;99.90;;;;;;5050505;28;20937;-69
2022/12/09 09:51:54;;;;;;;1999.90;999.90;;;2.30;99.90;;;;;;5050915;28;20470;-70
2022/12/09 09:54:21;;;;;;;1999.90;999.90;;;2.30;99.90;;;;;;5051242;28;20484;-71
2022/12/09 09:57:01;;;;;;;1999.90;999.90;;;2.30;99.90;;;;;;5050891;28;20458;-69
2022/12/09 09:59:39;;;;;;;1999.90;999.90;;;2.40;99.90;;;;;;5050483;28;20458;-69
2022/12/09 10:02:16;;;;;;;1999.90;999.90;;;2.40;99.90;;;;;;5051259;28;20468;-69
2022/12/09 10:04:57;;;;;;;1999.90;999.90;;;2.20;99.90;;;;;;5050839;28;20884;-68
2022/12/09 10:07:33;;;;;;;1999.90;999.90;;;2.20;99.90;;;;;;5050750;28;20460;-68
2022/12/09 10:10:10;;;;;;;1999.90;999.90;;;2.10;99.90;;;;;;5050121;28;20440;-69
2022/12/09 10:12:47;;;;;;;1999.90;999.90;;;2.20;99.90;;;;;;5050582;28;20856;-69
2022/12/09 10:15:18;;;;;;;1999.90;999.90;;;2.40;99.90;;;;;;5050536;28;20444;-69
2022/12/09 10:17:50;;;;;;;1999.90;999.90;;;2.70;99.90;;;;;;5050583;28;20459;-69
2022/12/09 10:20:20;;;;;;;1999.90;999.90;;;2.70;99.90;;;;;;5050060;28;20448;-69
2022/12/09 10:22:51;;;;;;;1999.90;999.90;;;3.00;99.90;;;;;;5050001;28;20456;-69
2022/12/09 10:25:22;;;;;;;1999.90;999.90;;;3.00;99.90;;;;;;5050117;28;20444;-68
2022/12/09 10:27:53;;;;;;;1999.90;999.90;;;3.20;99.90;;;;;;5037767;28;20440;-69
2022/12/09 10:30:21;;;;;;;1999.90;999.90;;;3.40;99.90;;;;;;5039345;28;20472;-68
2022/12/09 10:32:53;;;;;;;1999.90;999.90;;;3.50;99.90;;;;;;5039545;28;20495;-69
2022/12/09 10:35:23;;;;;;;1999.90;999.90;;;3.60;99.90;;;;;;5037936;28;20459;-69
2022/12/09 10:37:52;;;;;;;1999.90;999.90;;;3.70;99.90;;;;;;5039897;28;20445;-69
2022/12/09 10:40:25;;;;;;;1999.90;999.90;;;3.70;99.90;;;;;;5039061;28;20999;-69
2022/12/09 10:45:47;;;;;;;1999.90;999.90;;;3.60;99.90;;;;;;5040338;28;20428;-69
2022/12/09 10:48:27;;;;;;;1999.90;999.90;;;3.70;99.90;;;;;;5037547;28;20451;-70
2022/12/09 10:50:57;;;;;;;1999.90;999.90;;;3.60;99.90;;;;;;5037775;28;20527;-70
2022/12/09 10:53:25;;;;;;;1999.90;999.90;;;3.60;99.90;;;;;;5038026;28;20863;-70
2022/12/09 10:55:54;;;;;;;1999.90;999.90;;;3.60;99.90;;;;;;5037288;28;20520;-70
2022/12/09 10:58:23;;;;;;;1999.90;999.90;;;3.60;99.90;;;;;;5038499;28;20448;-70
2022/12/09 11:01:03;;;;;;;1999.90;999.90;;;3.50;99.90;;;;;;5039893;28;20443;-70
2022/12/09 11:03:32;;;;;;;1999.90;999.90;;;3.40;99.90;;;;;;5040156;28;20443;-70
2022/12/09 11:06:04;;;;;;;1999.90;999.90;;;3.10;99.90;;;;;;5038088;28;20444;-70
2022/12/09 11:08:31;;;;;;;1999.90;999.90;;;2.90;99.90;;;;;;5037278;28;20452;-70
2022/12/09 11:10:58;;;;;;;1999.90;999.90;;;2.80;99.90;;;;;;5044228;28;20444;-70
2022/12/09 11:13:37;;;;;;;1999.90;999.90;;;2.80;99.90;;;;;;5042228;28;20486;-71
2022/12/09 11:16:06;;;;;;;1999.90;999.90;;;2.70;99.90;;;;;;5040024;28;20440;-71
2022/12/09 11:18:42;;;;;;;1999.90;999.90;;;2.60;99.90;;;;;;5037794;28;20477;-70
2022/12/09 11:21:29;;;;;;;1999.90;999.90;;;2.50;99.90;;;;;;5040381;28;20463;-71
2022/12/09 11:23:56;;;;;;;1999.90;999.90;;;2.60;99.90;;;;;;5040415;28;20813;-70
2022/12/09 11:26:25;;;;;;;1999.90;999.90;;;2.60;99.90;;;;;;5039064;28;20927;-71
2022/12/09 11:29:02;;;;;;;1999.90;999.90;;;2.60;99.90;;;;;;5037750;28;20444;-70
2022/12/09 11:31:32;;;;;;;1999.90;999.90;;;2.70;99.90;;;;;;5038077;28;20546;-69
2022/12/09 11:34:01;;;;;;;1999.90;999.90;;;2.80;99.90;;;;;;5039959;28;20480;-69
2022/12/09 11:36:32;;;;;;;1999.90;999.90;;;2.90;99.90;;;;;;5039503;28;20463;-70
2022/12/09 11:39:17;;;;;;;1999.90;999.90;;;2.90;99.90;;;;;;5040780;28;20446;-70
2022/12/09 11:44:33;;;;;;;1999.90;999.90;;;3.10;99.90;;;;;;5039770;28;21215;-69
2022/12/09 11:47:02;;;;;;;1999.90;999.90;;;3.30;99.90;;;;;;5039619;28;20445;-69
2022/12/09 11:49:31;;;;;;;1999.90;999.90;;;3.50;99.90;;;;;;5041854;28;20440;-70
2022/12/09 11:52:07;;;;;;;1999.90;999.90;;;3.70;99.90;;;;;;5043956;28;20470;-69
2022/12/09 11:54:43;;;;;;;1999.90;999.90;;;4.00;99.90;;;;;;5043538;28;21015;-69
2022/12/09 11:57:30;;;;;;;1999.90;999.90;;;3.80;99.90;;;;;;5043486;28;20439;-70
2022/12/09 12:00:01;;;;;;;1999.90;999.90;;;3.60;99.90;;;;;;5043672;28;20828;-69
2022/12/09 12:02:36;;;;;;;1999.90;999.90;;;3.60;99.90;;;;;;5043535;28;20911;-69
2022/12/09 12:05:14;;;;;;;1999.90;999.90;;;3.60;99.90;;;;;;5043787;28;20466;-70
2022/12/09 12:07:47;;;;;;;1999.90;999.90;;;3.70;99.90;;;;;;5043569;28;20451;-70
2022/12/09 12:10:19;;;;;;;1999.90;999.90;;;3.80;99.90;;;;;;5043336;28;20440;-70
2022/12/09 12:12:59;;;;;;;1999.90;999.90;;;4.00;99.90;;;;;;5043121;28;20457;-70
2022/12/09 12:15:32;;;;;;;1999.90;999.90;;;4.20;99.90;;;;;;5043495;28;20465;-70
2022/12/09 12:18:02;;;;;;;1999.90;999.90;;;4.20;99.90;;;;;;5043541;28;20447;-70